Terminal Aerodrome Forecast
Issued by NWS Charleston, WV

Current Version | Previous Version | Graphics & Text | Print | Product List | Glossary On
Versions: 1 2 3 4 5 6 7 8 9 10 11 12 13 14 15 16 17 18
000
FTUS41 KRLX 181700
TAFHTS
TAF
KHTS 181738Z 1818/1918 VRB03KT P6SM OVC024
     FM181900 VRB03KT P6SM BKN025 BKN080
     FM182100 VRB03KT P6SM SCT025 BKN070
     FM190800 31003KT P6SM BKN025
     FM191700 31005KT P6SM SCT030=

USA.gov is the U.S. government's official web portal to all federal, state and local government web resources and services.